sensor_id;sensor_type;location;lat;lon;timestamp;temperature;humidity
49124;DHT22;48506;48.202;16.274;2023-09-12T00:00:20;21.00;92.10
49124;DHT22;48506;48.202;16.274;2023-09-12T00:02:48;21.00;92.40
49124;DHT22;48506;48.202;16.274;2023-09-12T00:05:14;21.00;92.50
49124;DHT22;48506;48.202;16.274;2023-09-12T00:07:40;21.00;92.50
49124;DHT22;48506;48.202;16.274;2023-09-12T00:10:06;21.00;92.60
49124;DHT22;48506;48.202;16.274;2023-09-12T00:12:32;21.00;92.60
49124;DHT22;48506;48.202;16.274;2023-09-12T00:14:58;21.00;92.50
49124;DHT22;48506;48.202;16.274;2023-09-12T00:17:24;20.90;92.70
49124;DHT22;48506;48.202;16.274;2023-09-12T00:19:52;20.90;92.70
49124;DHT22;48506;48.202;16.274;2023-09-12T00:22:18;20.90;92.70
49124;DHT22;48506;48.202;16.274;2023-09-12T00:24:44;20.80;92.70
49124;DHT22;48506;48.202;16.274;2023-09-12T00:27:10;20.80;92.80
49124;DHT22;48506;48.202;16.274;2023-09-12T00:29:36;20.80;92.90
49124;DHT22;48506;48.202;16.274;2023-09-12T00:32:02;20.80;92.90
49124;DHT22;48506;48.202;16.274;2023-09-12T00:34:28;20.70;93.00
49124;DHT22;48506;48.202;16.274;2023-09-12T00:36:54;20.70;93.00
49124;DHT22;48506;48.202;16.274;2023-09-12T00:39:20;20.70;93.00
49124;DHT22;48506;48.202;16.274;2023-09-12T00:41:46;20.70;93.10
49124;DHT22;48506;48.202;16.274;2023-09-12T00:44:12;20.70;93.10
49124;DHT22;48506;48.202;16.274;2023-09-12T00:46:38;20.60;93.20
49124;DHT22;48506;48.202;16.274;2023-09-12T00:49:07;20.60;93.20
49124;DHT22;48506;48.202;16.274;2023-09-12T00:51:34;20.60;93.30
49124;DHT22;48506;48.202;16.274;2023-09-12T00:54:01;20.50;93.30
49124;DHT22;48506;48.202;16.274;2023-09-12T00:56:27;20.50;93.30
49124;DHT22;48506;48.202;16.274;2023-09-12T00:58:54;20.50;93.50
49124;DHT22;48506;48.202;16.274;2023-09-12T01:01:20;20.50;93.60
49124;DHT22;48506;48.202;16.274;2023-09-12T01:03:47;20.50;93.60
49124;DHT22;48506;48.202;16.274;2023-09-12T01:06:14;20.40;93.60
49124;DHT22;48506;48.202;16.274;2023-09-12T01:08:41;20.40;93.70
49124;DHT22;48506;48.202;16.274;2023-09-12T01:11:08;20.30;93.80
49124;DHT22;48506;48.202;16.274;2023-09-12T01:13:34;20.20;93.90
49124;DHT22;48506;48.202;16.274;2023-09-12T01:16:00;20.20;94.10
49124;DHT22;48506;48.202;16.274;2023-09-12T01:18:26;20.20;94.20
49124;DHT22;48506;48.202;16.274;2023-09-12T01:29:06;20.20;94.40
49124;DHT22;48506;48.202;16.274;2023-09-12T01:31:34;20.20;94.40
49124;DHT22;48506;48.202;16.274;2023-09-12T01:34:12;20.10;94.40
49124;DHT22;48506;48.202;16.274;2023-09-12T01:36:38;20.00;94.60
49124;DHT22;48506;48.202;16.274;2023-09-12T01:39:04;20.00;94.70
49124;DHT22;48506;48.202;16.274;2023-09-12T01:41:34;20.00;94.80
49124;DHT22;48506;48.202;16.274;2023-09-12T01:44:02;19.90;94.80
49124;DHT22;48506;48.202;16.274;2023-09-12T01:46:29;19.90;94.90
49124;DHT22;48506;48.202;16.274;2023-09-12T01:48:57;19.90;94.90
49124;DHT22;48506;48.202;16.274;2023-09-12T01:51:24;19.80;95.00
49124;DHT22;48506;48.202;16.274;2023-09-12T01:53:53;19.80;95.10
49124;DHT22;48506;48.202;16.274;2023-09-12T01:56:20;19.80;95.10
49124;DHT22;48506;48.202;16.274;2023-09-12T01:58:47;19.80;95.10
49124;DHT22;48506;48.202;16.274;2023-09-12T02:01:13;19.80;95.20
49124;DHT22;48506;48.202;16.274;2023-09-12T02:03:39;19.70;95.30
49124;DHT22;48506;48.202;16.274;2023-09-12T02:06:05;19.70;95.50
49124;DHT22;48506;48.202;16.274;2023-09-12T02:08:31;19.70;95.60
49124;DHT22;48506;48.202;16.274;2023-09-12T02:10:57;19.60;95.70
49124;DHT22;48506;48.202;16.274;2023-09-12T02:13:23;19.70;95.70
49124;DHT22;48506;48.202;16.274;2023-09-12T02:15:49;19.70;95.90
49124;DHT22;48506;48.202;16.274;2023-09-12T02:18:15;19.70;95.90
49124;DHT22;48506;48.202;16.274;2023-09-12T02:20:42;19.80;95.80
49124;DHT22;48506;48.202;16.274;2023-09-12T02:23:11;19.90;95.70
49124;DHT22;48506;48.202;16.274;2023-09-12T02:25:37;20.00;95.60
49124;DHT22;48506;48.202;16.274;2023-09-12T02:28:03;20.00;95.80
49124;DHT22;48506;48.202;16.274;2023-09-12T02:30:29;20.00;95.50
49124;DHT22;48506;48.202;16.274;2023-09-12T02:32:55;19.90;95.40
49124;DHT22;48506;48.202;16.274;2023-09-12T02:35:21;20.00;95.50
49124;DHT22;48506;48.202;16.274;2023-09-12T02:37:47;19.90;95.40
49124;DHT22;48506;48.202;16.274;2023-09-12T02:40:13;19.90;95.40
49124;DHT22;48506;48.202;16.274;2023-09-12T02:42:40;19.90;95.60
49124;DHT22;48506;48.202;16.274;2023-09-12T02:45:06;19.90;95.80
49124;DHT22;48506;48.202;16.274;2023-09-12T02:47:32;19.90;95.60
49124;DHT22;48506;48.202;16.274;2023-09-12T02:49:58;19.90;95.60
49124;DHT22;48506;48.202;16.274;2023-09-12T02:52:24;19.90;95.60
49124;DHT22;48506;48.202;16.274;2023-09-12T02:54:50;19.90;95.60
49124;DHT22;48506;48.202;16.274;2023-09-12T02:57:16;19.80;95.60
49124;DHT22;48506;48.202;16.274;2023-09-12T02:59:42;19.80;95.70
49124;DHT22;48506;48.202;16.274;2023-09-12T03:02:08;19.70;95.70
49124;DHT22;48506;48.202;16.274;2023-09-12T03:04:35;19.70;95.80
49124;DHT22;48506;48.202;16.274;2023-09-12T03:07:01;19.70;95.70
49124;DHT22;48506;48.202;16.274;2023-09-12T03:09:27;19.70;95.70
49124;DHT22;48506;48.202;16.274;2023-09-12T03:11:53;19.60;95.70
49124;DHT22;48506;48.202;16.274;2023-09-12T03:14:19;19.60;95.70
49124;DHT22;48506;48.202;16.274;2023-09-12T03:16:46;19.50;95.70
49124;DHT22;48506;48.202;16.274;2023-09-12T03:19:12;19.40;95.90
49124;DHT22;48506;48.202;16.274;2023-09-12T03:21:38;19.40;95.90
49124;DHT22;48506;48.202;16.274;2023-09-12T03:24:05;19.40;95.90
49124;DHT22;48506;48.202;16.274;2023-09-12T03:26:34;19.30;96.00
49124;DHT22;48506;48.202;16.274;2023-09-12T03:29:01;19.30;96.10
49124;DHT22;48506;48.202;16.274;2023-09-12T03:31:28;19.30;96.00
49124;DHT22;48506;48.202;16.274;2023-09-12T03:33:54;19.30;96.10
49124;DHT22;48506;48.202;16.274;2023-09-12T03:36:20;19.30;96.20
49124;DHT22;48506;48.202;16.274;2023-09-12T03:38:46;19.20;96.20
49124;DHT22;48506;48.202;16.274;2023-09-12T03:41:12;19.20;96.20
49124;DHT22;48506;48.202;16.274;2023-09-12T03:43:38;19.20;96.30
49124;DHT22;48506;48.202;16.274;2023-09-12T03:46:04;19.10;96.30
49124;DHT22;48506;48.202;16.274;2023-09-12T03:48:31;19.10;96.30
49124;DHT22;48506;48.202;16.274;2023-09-12T03:50:57;19.10;96.40
49124;DHT22;48506;48.202;16.274;2023-09-12T03:53:23;19.10;96.40
49124;DHT22;48506;48.202;16.274;2023-09-12T03:55:49;19.10;96.50
49124;DHT22;48506;48.202;16.274;2023-09-12T03:58:15;19.00;96.70
49124;DHT22;48506;48.202;16.274;2023-09-12T04:00:41;19.00;96.70
49124;DHT22;48506;48.202;16.274;2023-09-12T04:03:07;19.00;96.70
49124;DHT22;48506;48.202;16.274;2023-09-12T04:05:32;19.00;96.70
49124;DHT22;48506;48.202;16.274;2023-09-12T04:07:58;18.90;96.70
49124;DHT22;48506;48.202;16.274;2023-09-12T04:10:24;18.90;96.80
49124;DHT22;48506;48.202;16.274;2023-09-12T04:12:50;18.90;96.80
49124;DHT22;48506;48.202;16.274;2023-09-12T04:15:16;18.90;96.90
49124;DHT22;48506;48.202;16.274;2023-09-12T04:17:42;18.80;97.10
49124;DHT22;48506;48.202;16.274;2023-09-12T04:20:08;18.80;96.90
49124;DHT22;48506;48.202;16.274;2023-09-12T04:22:36;18.80;97.00
49124;DHT22;48506;48.202;16.274;2023-09-12T04:25:01;18.80;96.80
49124;DHT22;48506;48.202;16.274;2023-09-12T04:27:29;18.80;96.90
49124;DHT22;48506;48.202;16.274;2023-09-12T04:29:54;18.80;96.90
49124;DHT22;48506;48.202;16.274;2023-09-12T04:32:21;18.80;96.90
49124;DHT22;48506;48.202;16.274;2023-09-12T04:34:50;18.70;97.00
49124;DHT22;48506;48.202;16.274;2023-09-12T04:37:16;18.70;97.00
49124;DHT22;48506;48.202;16.274;2023-09-12T04:39:42;18.70;97.00
49124;DHT22;48506;48.202;16.274;2023-09-12T04:42:08;18.70;97.20
49124;DHT22;48506;48.202;16.274;2023-09-12T04:44:40;18.70;97.20
49124;DHT22;48506;48.202;16.274;2023-09-12T04:47:07;18.70;97.20
49124;DHT22;48506;48.202;16.274;2023-09-12T04:49:33;18.70;97.30
49124;DHT22;48506;48.202;16.274;2023-09-12T04:51:59;18.60;97.40
49124;DHT22;48506;48.202;16.274;2023-09-12T04:54:25;18.60;97.60
49124;DHT22;48506;48.202;16.274;2023-09-12T04:56:51;18.60;97.70
49124;DHT22;48506;48.202;16.274;2023-09-12T04:59:17;18.70;97.60
49124;DHT22;48506;48.202;16.274;2023-09-12T05:01:43;18.80;97.60
49124;DHT22;48506;48.202;16.274;2023-09-12T05:04:09;18.80;97.60
49124;DHT22;48506;48.202;16.274;2023-09-12T05:06:36;18.80;97.60
49124;DHT22;48506;48.202;16.274;2023-09-12T05:09:01;18.90;97.60
49124;DHT22;48506;48.202;16.274;2023-09-12T05:11:28;18.90;97.70
49124;DHT22;48506;48.202;16.274;2023-09-12T05:13:55;18.90;97.60
49124;DHT22;48506;48.202;16.274;2023-09-12T05:16:20;18.90;97.70
49124;DHT22;48506;48.202;16.274;2023-09-12T05:18:46;19.00;97.80
49124;DHT22;48506;48.202;16.274;2023-09-12T05:21:15;19.10;97.80
49124;DHT22;48506;48.202;16.274;2023-09-12T05:23:42;19.10;97.80
49124;DHT22;48506;48.202;16.274;2023-09-12T05:26:08;19.10;97.90
49124;DHT22;48506;48.202;16.274;2023-09-12T05:28:34;19.20;97.90
49124;DHT22;48506;48.202;16.274;2023-09-12T05:31:00;19.20;97.90
49124;DHT22;48506;48.202;16.274;2023-09-12T05:33:26;19.30;97.90
49124;DHT22;48506;48.202;16.274;2023-09-12T05:35:52;19.30;97.90
49124;DHT22;48506;48.202;16.274;2023-09-12T05:38:18;19.40;97.80
49124;DHT22;48506;48.202;16.274;2023-09-12T05:40:44;19.40;97.80
49124;DHT22;48506;48.202;16.274;2023-09-12T05:43:10;19.50;97.80
49124;DHT22;48506;48.202;16.274;2023-09-12T05:45:36;19.50;97.80
49124;DHT22;48506;48.202;16.274;2023-09-12T05:48:03;19.50;97.70
49124;DHT22;48506;48.202;16.274;2023-09-12T05:50:30;19.60;97.70
49124;DHT22;48506;48.202;16.274;2023-09-12T05:52:56;19.70;97.70
49124;DHT22;48506;48.202;16.274;2023-09-12T05:55:22;19.70;97.60
49124;DHT22;48506;48.202;16.274;2023-09-12T05:57:48;19.80;97.60
49124;DHT22;48506;48.202;16.274;2023-09-12T06:00:19;19.90;97.90
49124;DHT22;48506;48.202;16.274;2023-09-12T06:02:49;20.00;97.60
49124;DHT22;48506;48.202;16.274;2023-09-12T06:05:15;20.00;97.50
49124;DHT22;48506;48.202;16.274;2023-09-12T06:07:42;20.00;97.40
49124;DHT22;48506;48.202;16.274;2023-09-12T06:10:08;20.10;97.40
49124;DHT22;48506;48.202;16.274;2023-09-12T06:12:35;20.20;97.40
49124;DHT22;48506;48.202;16.274;2023-09-12T06:15:04;20.30;97.30
49124;DHT22;48506;48.202;16.274;2023-09-12T06:17:31;20.30;97.20
49124;DHT22;48506;48.202;16.274;2023-09-12T06:19:57;20.40;97.00
49124;DHT22;48506;48.202;16.274;2023-09-12T06:22:23;20.40;96.90
49124;DHT22;48506;48.202;16.274;2023-09-12T06:24:53;20.50;96.80
49124;DHT22;48506;48.202;16.274;2023-09-12T06:27:19;20.70;96.60
49124;DHT22;48506;48.202;16.274;2023-09-12T06:29:46;20.70;96.40
49124;DHT22;48506;48.202;16.274;2023-09-12T06:32:18;20.90;96.30
49124;DHT22;48506;48.202;16.274;2023-09-12T06:34:44;21.10;96.10
49124;DHT22;48506;48.202;16.274;2023-09-12T06:37:13;21.20;95.90
49124;DHT22;48506;48.202;16.274;2023-09-12T06:39:39;21.30;95.50
49124;DHT22;48506;48.202;16.274;2023-09-12T06:42:06;21.40;95.40
49124;DHT22;48506;48.202;16.274;2023-09-12T06:44:32;21.50;95.30
49124;DHT22;48506;48.202;16.274;2023-09-12T06:46:58;21.50;95.20
49124;DHT22;48506;48.202;16.274;2023-09-12T06:49:24;21.70;95.10
49124;DHT22;48506;48.202;16.274;2023-09-12T06:51:50;21.80;94.90
49124;DHT22;48506;48.202;16.274;2023-09-12T06:54:16;21.90;94.80
49124;DHT22;48506;48.202;16.274;2023-09-12T06:56:42;22.00;94.70
49124;DHT22;48506;48.202;16.274;2023-09-12T06:59:08;22.10;94.50
49124;DHT22;48506;48.202;16.274;2023-09-12T07:01:35;22.20;94.60
49124;DHT22;48506;48.202;16.274;2023-09-12T07:04:01;22.50;94.50
49124;DHT22;48506;48.202;16.274;2023-09-12T07:06:27;22.60;94.30
49124;DHT22;48506;48.202;16.274;2023-09-12T07:08:53;22.80;94.30
49124;DHT22;48506;48.202;16.274;2023-09-12T07:11:19;23.00;94.40
49124;DHT22;48506;48.202;16.274;2023-09-12T07:13:45;23.10;93.90
49124;DHT22;48506;48.202;16.274;2023-09-12T07:16:12;23.30;93.30
49124;DHT22;48506;48.202;16.274;2023-09-12T07:18:38;23.40;93.40
49124;DHT22;48506;48.202;16.274;2023-09-12T07:21:05;23.60;93.10
49124;DHT22;48506;48.202;16.274;2023-09-12T07:23:32;23.80;93.30
49124;DHT22;48506;48.202;16.274;2023-09-12T07:25:58;24.00;92.90
49124;DHT22;48506;48.202;16.274;2023-09-12T07:28:27;24.20;92.40
49124;DHT22;48506;48.202;16.274;2023-09-12T07:30:57;24.40;91.80
49124;DHT22;48506;48.202;16.274;2023-09-12T07:33:23;24.40;91.60
49124;DHT22;48506;48.202;16.274;2023-09-12T07:35:52;24.50;91.90
49124;DHT22;48506;48.202;16.274;2023-09-12T07:38:20;24.80;91.50
49124;DHT22;48506;48.202;16.274;2023-09-12T07:40:47;24.90;90.90
49124;DHT22;48506;48.202;16.274;2023-09-12T07:43:13;25.00;91.30
49124;DHT22;48506;48.202;16.274;2023-09-12T07:45:39;25.20;90.90
49124;DHT22;48506;48.202;16.274;2023-09-12T07:48:09;25.30;90.50
49124;DHT22;48506;48.202;16.274;2023-09-12T07:50:38;25.40;90.50
49124;DHT22;48506;48.202;16.274;2023-09-12T07:53:07;25.60;90.40
49124;DHT22;48506;48.202;16.274;2023-09-12T07:55:39;25.90;90.30
49124;DHT22;48506;48.202;16.274;2023-09-12T07:58:16;26.00;89.80
49124;DHT22;48506;48.202;16.274;2023-09-12T08:00:46;26.10;89.40
49124;DHT22;48506;48.202;16.274;2023-09-12T08:03:12;26.20;89.00
49124;DHT22;48506;48.202;16.274;2023-09-12T08:05:39;26.40;88.50
49124;DHT22;48506;48.202;16.274;2023-09-12T08:08:06;26.60;88.70
49124;DHT22;48506;48.202;16.274;2023-09-12T08:10:32;26.80;87.50
49124;DHT22;48506;48.202;16.274;2023-09-12T08:12:58;26.90;86.30
49124;DHT22;48506;48.202;16.274;2023-09-12T08:15:24;27.00;86.40
49124;DHT22;48506;48.202;16.274;2023-09-12T08:17:50;27.20;86.00
49124;DHT22;48506;48.202;16.274;2023-09-12T08:20:20;27.30;86.00
49124;DHT22;48506;48.202;16.274;2023-09-12T08:22:47;27.40;85.30
49124;DHT22;48506;48.202;16.274;2023-09-12T08:25:14;27.40;85.30
49124;DHT22;48506;48.202;16.274;2023-09-12T08:27:41;27.30;84.40
49124;DHT22;48506;48.202;16.274;2023-09-12T08:30:10;27.30;85.00
49124;DHT22;48506;48.202;16.274;2023-09-12T08:32:36;27.50;84.30
49124;DHT22;48506;48.202;16.274;2023-09-12T08:35:06;27.60;84.50
49124;DHT22;48506;48.202;16.274;2023-09-12T08:37:32;27.80;83.70
49124;DHT22;48506;48.202;16.274;2023-09-12T08:39:58;28.10;83.20
49124;DHT22;48506;48.202;16.274;2023-09-12T08:42:26;28.10;81.70
49124;DHT22;48506;48.202;16.274;2023-09-12T08:44:55;28.20;82.40
49124;DHT22;48506;48.202;16.274;2023-09-12T08:47:23;28.20;82.70
49124;DHT22;48506;48.202;16.274;2023-09-12T08:49:50;28.30;82.10
49124;DHT22;48506;48.202;16.274;2023-09-12T08:52:16;28.50;81.60
49124;DHT22;48506;48.202;16.274;2023-09-12T08:54:42;28.60;81.30
49124;DHT22;48506;48.202;16.274;2023-09-12T08:57:11;28.70;80.80
49124;DHT22;48506;48.202;16.274;2023-09-12T08:59:39;28.80;80.30
49124;DHT22;48506;48.202;16.274;2023-09-12T09:02:09;28.90;79.80
49124;DHT22;48506;48.202;16.274;2023-09-12T09:04:36;29.10;79.70
49124;DHT22;48506;48.202;16.274;2023-09-12T09:07:03;29.20;79.80
49124;DHT22;48506;48.202;16.274;2023-09-12T09:09:31;29.30;79.40
49124;DHT22;48506;48.202;16.274;2023-09-12T09:11:58;29.40;78.40
49124;DHT22;48506;48.202;16.274;2023-09-12T09:14:24;29.40;78.80
49124;DHT22;48506;48.202;16.274;2023-09-12T09:16:50;29.50;78.60
49124;DHT22;48506;48.202;16.274;2023-09-12T09:19:16;29.60;78.50
49124;DHT22;48506;48.202;16.274;2023-09-12T09:21:44;29.80;78.10
49124;DHT22;48506;48.202;16.274;2023-09-12T09:24:13;29.90;77.70
49124;DHT22;48506;48.202;16.274;2023-09-12T09:26:49;29.90;78.00
49124;DHT22;48506;48.202;16.274;2023-09-12T09:29:17;30.00;76.80
49124;DHT22;48506;48.202;16.274;2023-09-12T09:31:48;30.10;77.30
49124;DHT22;48506;48.202;16.274;2023-09-12T09:34:17;30.30;76.60
49124;DHT22;48506;48.202;16.274;2023-09-12T09:36:51;30.40;77.00
49124;DHT22;48506;48.202;16.274;2023-09-12T09:39:19;30.60;75.50
49124;DHT22;48506;48.202;16.274;2023-09-12T09:41:49;30.70;75.10
49124;DHT22;48506;48.202;16.274;2023-09-12T09:44:17;30.80;75.10
49124;DHT22;48506;48.202;16.274;2023-09-12T09:46:44;30.80;75.30
49124;DHT22;48506;48.202;16.274;2023-09-12T09:49:14;31.00;74.50
49124;DHT22;48506;48.202;16.274;2023-09-12T09:51:41;31.20;73.50
49124;DHT22;48506;48.202;16.274;2023-09-12T09:54:09;31.40;72.20
49124;DHT22;48506;48.202;16.274;2023-09-12T09:56:52;31.50;72.00
49124;DHT22;48506;48.202;16.274;2023-09-12T09:59:22;31.50;72.70
49124;DHT22;48506;48.202;16.274;2023-09-12T10:01:49;31.60;72.60
49124;DHT22;48506;48.202;16.274;2023-09-12T10:04:18;31.70;72.10
49124;DHT22;48506;48.202;16.274;2023-09-12T10:06:45;31.70;72.00
49124;DHT22;48506;48.202;16.274;2023-09-12T10:09:13;31.80;71.20
49124;DHT22;48506;48.202;16.274;2023-09-12T10:11:41;31.90;70.50
49124;DHT22;48506;48.202;16.274;2023-09-12T10:14:08;32.00;70.80
49124;DHT22;48506;48.202;16.274;2023-09-12T10:16:36;31.90;70.40
49124;DHT22;48506;48.202;16.274;2023-09-12T10:24:21;32.20;70.00
49124;DHT22;48506;48.202;16.274;2023-09-12T10:26:52;32.20;69.80
49124;DHT22;48506;48.202;16.274;2023-09-12T10:29:20;32.40;69.70
49124;DHT22;48506;48.202;16.274;2023-09-12T10:31:47;32.50;69.70
49124;DHT22;48506;48.202;16.274;2023-09-12T10:34:15;32.50;70.00
49124;DHT22;48506;48.202;16.274;2023-09-12T10:36:42;32.50;68.40
49124;DHT22;48506;48.202;16.274;2023-09-12T10:39:10;32.30;69.00
49124;DHT22;48506;48.202;16.274;2023-09-12T10:41:39;32.30;68.20
49124;DHT22;48506;48.202;16.274;2023-09-12T10:44:15;32.40;68.70
49124;DHT22;48506;48.202;16.274;2023-09-12T10:46:43;32.60;68.70
49124;DHT22;48506;48.202;16.274;2023-09-12T10:49:12;32.80;68.30
49124;DHT22;48506;48.202;16.274;2023-09-12T10:51:40;32.80;67.30
49124;DHT22;48506;48.202;16.274;2023-09-12T10:54:08;32.80;65.50
49124;DHT22;48506;48.202;16.274;2023-09-12T10:56:34;32.40;66.00
49124;DHT22;48506;48.202;16.274;2023-09-12T11:01:31;32.40;67.30
49124;DHT22;48506;48.202;16.274;2023-09-12T11:03:57;32.60;66.90
49124;DHT22;48506;48.202;16.274;2023-09-12T11:06:29;32.80;67.20
49124;DHT22;48506;48.202;16.274;2023-09-12T11:11:41;33.00;67.20
49124;DHT22;48506;48.202;16.274;2023-09-12T11:14:08;33.10;66.40
49124;DHT22;48506;48.202;16.274;2023-09-12T11:16:35;33.20;65.50
49124;DHT22;48506;48.202;16.274;2023-09-12T11:19:20;33.20;65.20
49124;DHT22;48506;48.202;16.274;2023-09-12T11:21:51;33.20;65.20
49124;DHT22;48506;48.202;16.274;2023-09-12T11:24:18;33.20;64.10
49124;DHT22;48506;48.202;16.274;2023-09-12T11:26:56;33.10;64.70
49124;DHT22;48506;48.202;16.274;2023-09-12T11:29:43;33.10;64.30
49124;DHT22;48506;48.202;16.274;2023-09-12T11:32:35;33.10;64.60
49124;DHT22;48506;48.202;16.274;2023-09-12T11:35:06;33.20;65.10
49124;DHT22;48506;48.202;16.274;2023-09-12T11:37:33;33.20;64.00
49124;DHT22;48506;48.202;16.274;2023-09-12T11:40:01;33.20;64.80
49124;DHT22;48506;48.202;16.274;2023-09-12T11:42:29;33.10;64.40
49124;DHT22;48506;48.202;16.274;2023-09-12T11:44:56;33.00;64.70
49124;DHT22;48506;48.202;16.274;2023-09-12T11:47:23;33.10;64.60
49124;DHT22;48506;48.202;16.274;2023-09-12T11:49:50;33.20;64.10
49124;DHT22;48506;48.202;16.274;2023-09-12T11:52:16;33.30;63.60
49124;DHT22;48506;48.202;16.274;2023-09-12T11:54:43;33.30;63.30
49124;DHT22;48506;48.202;16.274;2023-09-12T11:57:12;33.40;63.10
49124;DHT22;48506;48.202;16.274;2023-09-12T11:59:40;33.60;63.00
49124;DHT22;48506;48.202;16.274;2023-09-12T12:02:10;33.70;61.10
49124;DHT22;48506;48.202;16.274;2023-09-12T12:04:37;33.70;61.30
49124;DHT22;48506;48.202;16.274;2023-09-12T12:07:04;33.70;62.20
49124;DHT22;48506;48.202;16.274;2023-09-12T12:09:30;33.70;62.20
49124;DHT22;48506;48.202;16.274;2023-09-12T12:12:02;33.80;61.50
49124;DHT22;48506;48.202;16.274;2023-09-12T12:14:28;33.80;60.60
49124;DHT22;48506;48.202;16.274;2023-09-12T12:17:05;33.90;59.90
49124;DHT22;48506;48.202;16.274;2023-09-12T12:19:32;33.90;59.60
49124;DHT22;48506;48.202;16.274;2023-09-12T12:21:58;33.90;58.70
49124;DHT22;48506;48.202;16.274;2023-09-12T12:24:24;33.80;59.40
49124;DHT22;48506;48.202;16.274;2023-09-12T12:26:50;33.80;60.20
49124;DHT22;48506;48.202;16.274;2023-09-12T12:29:17;33.80;59.30
49124;DHT22;48506;48.202;16.274;2023-09-12T12:31:43;33.60;57.10
49124;DHT22;48506;48.202;16.274;2023-09-12T12:34:09;33.50;57.00
49124;DHT22;48506;48.202;16.274;2023-09-12T12:36:44;33.50;57.80
49124;DHT22;48506;48.202;16.274;2023-09-12T12:39:11;33.50;58.10
49124;DHT22;48506;48.202;16.274;2023-09-12T12:41:38;33.50;57.80
49124;DHT22;48506;48.202;16.274;2023-09-12T12:44:05;33.50;56.40
49124;DHT22;48506;48.202;16.274;2023-09-12T12:46:32;33.50;56.20
49124;DHT22;48506;48.202;16.274;2023-09-12T12:48:58;33.40;56.60
49124;DHT22;48506;48.202;16.274;2023-09-12T12:51:25;33.40;58.40
49124;DHT22;48506;48.202;16.274;2023-09-12T12:54:02;33.30;59.60
49124;DHT22;48506;48.202;16.274;2023-09-12T12:56:29;33.40;59.40
49124;DHT22;48506;48.202;16.274;2023-09-12T12:58:58;33.50;59.70
49124;DHT22;48506;48.202;16.274;2023-09-12T13:01:25;33.60;58.50
49124;DHT22;48506;48.202;16.274;2023-09-12T13:03:51;33.50;59.50
49124;DHT22;48506;48.202;16.274;2023-09-12T13:06:17;33.50;60.80
49124;DHT22;48506;48.202;16.274;2023-09-12T13:08:45;33.50;60.20
49124;DHT22;48506;48.202;16.274;2023-09-12T13:11:12;33.50;60.20
49124;DHT22;48506;48.202;16.274;2023-09-12T13:13:42;33.40;59.20
49124;DHT22;48506;48.202;16.274;2023-09-12T13:16:10;33.30;60.10
49124;DHT22;48506;48.202;16.274;2023-09-12T13:18:40;33.20;60.10
49124;DHT22;48506;48.202;16.274;2023-09-12T13:21:06;33.30;60.70
49124;DHT22;48506;48.202;16.274;2023-09-12T13:23:36;33.30;59.40
49124;DHT22;48506;48.202;16.274;2023-09-12T13:26:03;33.20;60.60
49124;DHT22;48506;48.202;16.274;2023-09-12T13:28:30;33.20;60.30
49124;DHT22;48506;48.202;16.274;2023-09-12T13:30:56;33.30;61.10
49124;DHT22;48506;48.202;16.274;2023-09-12T13:33:25;33.30;60.80
49124;DHT22;48506;48.202;16.274;2023-09-12T13:35:51;33.40;60.20
49124;DHT22;48506;48.202;16.274;2023-09-12T13:38:17;33.40;60.40
49124;DHT22;48506;48.202;16.274;2023-09-12T13:40:46;33.40;59.90
49124;DHT22;48506;48.202;16.274;2023-09-12T13:43:12;33.50;60.10
49124;DHT22;48506;48.202;16.274;2023-09-12T13:45:39;33.50;59.20
49124;DHT22;48506;48.202;16.274;2023-09-12T13:48:06;33.60;59.60
49124;DHT22;48506;48.202;16.274;2023-09-12T13:50:32;33.70;60.40
49124;DHT22;48506;48.202;16.274;2023-09-12T13:53:00;33.70;60.30
49124;DHT22;48506;48.202;16.274;2023-09-12T13:55:29;33.70;59.80
49124;DHT22;48506;48.202;16.274;2023-09-12T13:57:55;33.60;60.60
49124;DHT22;48506;48.202;16.274;2023-09-12T14:00:21;33.50;60.00
49124;DHT22;48506;48.202;16.274;2023-09-12T14:02:47;33.40;59.70
49124;DHT22;48506;48.202;16.274;2023-09-12T14:05:13;33.50;60.10
49124;DHT22;48506;48.202;16.274;2023-09-12T14:07:39;33.50;59.90
49124;DHT22;48506;48.202;16.274;2023-09-12T14:10:07;33.50;60.10
49124;DHT22;48506;48.202;16.274;2023-09-12T14:12:33;33.50;59.80
49124;DHT22;48506;48.202;16.274;2023-09-12T14:15:00;33.50;60.00
49124;DHT22;48506;48.202;16.274;2023-09-12T14:17:27;33.50;59.30
49124;DHT22;48506;48.202;16.274;2023-09-12T14:19:55;33.50;59.90
49124;DHT22;48506;48.202;16.274;2023-09-12T14:22:22;33.40;58.60
49124;DHT22;48506;48.202;16.274;2023-09-12T14:24:48;33.40;59.70
49124;DHT22;48506;48.202;16.274;2023-09-12T14:27:15;33.30;59.20
49124;DHT22;48506;48.202;16.274;2023-09-12T14:29:41;33.30;58.50
49124;DHT22;48506;48.202;16.274;2023-09-12T14:32:12;33.20;59.30
49124;DHT22;48506;48.202;16.274;2023-09-12T14:34:39;33.10;60.10
49124;DHT22;48506;48.202;16.274;2023-09-12T14:37:05;33.10;60.20
49124;DHT22;48506;48.202;16.274;2023-09-12T14:39:31;33.10;60.80
49124;DHT22;48506;48.202;16.274;2023-09-12T14:41:57;33.20;60.90
49124;DHT22;48506;48.202;16.274;2023-09-12T14:44:25;33.20;60.90
49124;DHT22;48506;48.202;16.274;2023-09-12T14:46:51;33.20;60.90
49124;DHT22;48506;48.202;16.274;2023-09-12T14:49:17;33.10;61.60
49124;DHT22;48506;48.202;16.274;2023-09-12T14:51:44;33.00;62.10
49124;DHT22;48506;48.202;16.274;2023-09-12T14:54:10;33.00;61.70
49124;DHT22;48506;48.202;16.274;2023-09-12T14:56:37;32.80;60.90
49124;DHT22;48506;48.202;16.274;2023-09-12T14:59:04;32.80;61.90
49124;DHT22;48506;48.202;16.274;2023-09-12T15:01:32;32.70;59.60
49124;DHT22;48506;48.202;16.274;2023-09-12T15:04:01;32.60;60.20
49124;DHT22;48506;48.202;16.274;2023-09-12T15:06:27;32.50;60.20
49124;DHT22;48506;48.202;16.274;2023-09-12T15:08:57;32.40;58.80
49124;DHT22;48506;48.202;16.274;2023-09-12T15:11:24;32.40;57.90
49124;DHT22;48506;48.202;16.274;2023-09-12T15:13:50;32.30;57.90
49124;DHT22;48506;48.202;16.274;2023-09-12T15:16:16;32.40;58.40
49124;DHT22;48506;48.202;16.274;2023-09-12T15:18:42;32.50;58.80
49124;DHT22;48506;48.202;16.274;2023-09-12T15:21:09;32.50;59.70
49124;DHT22;48506;48.202;16.274;2023-09-12T15:23:35;32.50;60.30
49124;DHT22;48506;48.202;16.274;2023-09-12T15:26:00;32.50;60.70
49124;DHT22;48506;48.202;16.274;2023-09-12T15:28:27;32.50;60.90
49124;DHT22;48506;48.202;16.274;2023-09-12T15:30:54;32.50;60.90
49124;DHT22;48506;48.202;16.274;2023-09-12T15:33:20;32.50;61.80